Home > Products > Valid Products > TAF

000
FTUS43 KICT 032320
TAFHUT
TAF
KHUT 032320Z 0400/0424 17017G24KT P6SM BKN150
     FM040100 16012KT P6SM BKN150
     FM041500 18018G27KT P6SM SCT200=



000
FTUS43 KICT 032320
TAFICT
TAF
KICT 032320Z 0400/0424 18013G20KT P6SM BKN250
     FM040100 16011KT P6SM BKN150
     FM041500 18018G25KT P6SM SCT200=



000
FTUS43 KICT 032320
TAFRSL
TAF
KRSL 032320Z 0400/0424 17020G28KT P6SM BKN150
     FM040100 17015G22KT P6SM BKN150
     FM041500 19019G28KT P6SM SCT200=



000
FTUS43 KICT 032320
TAFSLN
TAF
KSLN 032320Z 0400/0424 17016G23KT P6SM SCT150
     FM040100 17012KT P6SM BKN150
     FM041500 18018G27KT P6SM SCT200=



000
FTUS43 KICT 032320
TAFCNU
TAF
KCNU 032320Z 0400/0424 18012KT P6SM SKC
     FM040100 15007KT P6SM FEW200
     FM041500 18014KT P6SM FEW200=



000
FTUS43 KICT 031720
TAFSLN
TAF
KSLN 031720Z 0318/0418 18020G30KT P6SM SKC
     FM040100 17014G20KT P6SM FEW200
     FM041500 18018G25KT P6SM SCT200=



000
FTUS43 KICT 031720
TAFICT
TAF
KICT 031720Z 0318/0418 18018G25KT P6SM SKC
     FM040100 16012KT P6SM SCT150
     FM041500 18018G25KT P6SM SCT200=



000
FTUS43 KICT 031720
TAFHUT
TAF
KHUT 031720Z 0318/0418 18018G25KT P6SM SKC
     FM031900 18020G28KT P6SM SKC
     FM040100 17012KT P6SM FEW150
     FM041500 18018G25KT P6SM SCT200=



000
FTUS43 KICT 031720
TAFRSL
TAF
KRSL 031720Z 0318/0418 17018G25KT P6SM SKC
     FM031900 18020G28KT P6SM SKC
     FM040100 18015G22KT P6SM SCT200
     FM041500 19018G25KT P6SM SCT200=



000
FTUS43 KICT 031720
TAFCNU
TAF
KCNU 031720Z 0318/0418 18012G20KT P6SM SKC
     FM040100 15007KT P6SM FEW200
     FM041500 18014KT P6SM FEW200=



000
FTUS43 KICT 031135
TAFCNU
TAF
KCNU 031135Z 0312/0412 18010KT P6SM SCT150
     FM031500 19013G22KT P6SM SCT100
     FM031900 18012G20KT P6SM SKC
     FM032300 19010KT P6SM SKC
     FM040200 15007KT P6SM FEW200=



000
FTUS43 KICT 031135
TAFICT
TAF
KICT 031135Z 0312/0412 16012KT P6SM SCT150
     FM031500 18015G20KT P6SM SCT150
     FM031800 18018G25KT P6SM FEW120
     FM040100 16012KT P6SM SCT150=



000
FTUS43 KICT 031135
TAFHUT
TAF
KHUT 031135Z 0312/0412 18012KT P6SM SCT200
     FM031600 18018G25KT P6SM BKN100
     FM031900 18020G28KT P6SM FEW120
     FM040100 17012KT P6SM SCT150=



000
FTUS43 KICT 031135
TAFRSL
TAF
KRSL 031135Z 0312/0412 17015G20KT P6SM SCT100
     FM031900 18020G28KT P6SM FEW120
     FM040100 18015KT P6SM BKN120=



000
FTUS43 KICT 031135
TAFICT
TAF
KICT 031135Z 0312/0412 16012KT P6SM SCT150
     FM031500 18015G20KT P6SM SCT150
     FM031800 18018G25KT P6SM FEW120
     FM040100 16012KT P6SM SCT150=



000
FTUS43 KICT 031135
TAFSLN
TAF
KSLN 031135Z 0312/0412 19012KT P6SM BKN120
     FM031400 18015G22KT P6SM BKN100
     FM031600 18020G30KT P6SM FEW120
     FM040100 17012KT P6SM BKN120=



000
FTUS43 KICT 031135
TAFCNU
TAF
KCNU 031135Z 0312/0412 18010KT P6SM SCT150
     FM031500 19013G22KT P6SM SCT100
     FM031900 18012G20KT P6SM SKC
     FM032300 19010KT P6SM SKC
     FM040200 15007KT P6SM FEW200=



000
FTUS43 KICT 031135
TAFHUT
TAF
KHUT 031135Z 0312/0412 18012KT P6SM SCT200
     FM031600 18018G25KT P6SM BKN100
     FM031900 18020G28KT P6SM FEW120
     FM040100 17012KT P6SM SCT150=



000
FTUS43 KICT 031135
TAFSLN
TAF
KSLN 031135Z 0312/0412 19012KT P6SM BKN120
     FM031400 18015G22KT P6SM BKN100
     FM031600 18020G30KT P6SM FEW120
     FM040100 17012KT P6SM BKN120=



000
FTUS43 KICT 031135
TAFRSL
TAF
KRSL 031135Z 0312/0412 17015G20KT P6SM SCT100
     FM031900 18020G28KT P6SM FEW120
     FM040100 18015KT P6SM BKN120=



000
FTUS43 KICT 030520
TAFICT
TAF
KICT 030520Z 0306/0406 16011KT P6SM SCT250
     FM031500 18015G23KT P6SM BKN120
     FM031900 18018G27KT P6SM FEW120
     FM040100 16012KT P6SM SCT150=



000
FTUS43 KICT 030520
TAFRSL
TAF
KRSL 030520Z 0306/0406 17015KT P6SM FEW100 SCT200
     FM031400 18017G24KT P6SM BKN100
     FM031900 18024G32KT P6SM FEW120
     FM040100 18016KT P6SM SCT150=



000
FTUS43 KICT 030520
TAFSLN
TAF
KSLN 030520Z 0306/0406 16013KT P6SM SCT200
     FM031400 18016G23KT P6SM BKN100
     FM031900 18021G31KT P6SM FEW120
     FM040100 16013KT P6SM FEW150=



000
FTUS43 KICT 030520
TAFHUT
TAF
KHUT 030520Z 0306/0406 16012KT P6SM SCT200
     FM031400 18015G23KT P6SM BKN100
     FM031900 18021G30KT P6SM FEW120
     FM040100 16014KT P6SM SCT150=



000
FTUS43 KICT 030520
TAFRSL
TAF
KRSL 030520Z 0306/0406 17015KT P6SM FEW100 SCT200
     FM031400 18017G24KT P6SM BKN100
     FM031900 18024G32KT P6SM FEW120
     FM040100 18016KT P6SM SCT150=



000
FTUS43 KICT 030520
TAFICT
TAF
KICT 030520Z 0306/0406 16011KT P6SM SCT250
     FM031500 18015G23KT P6SM BKN120
     FM031900 18018G27KT P6SM FEW120
     FM040100 16012KT P6SM SCT150=



000
FTUS43 KICT 030520
TAFHUT
TAF
KHUT 030520Z 0306/0406 16012KT P6SM SCT200
     FM031400 18015G23KT P6SM BKN100
     FM031900 18021G30KT P6SM FEW120
     FM040100 16014KT P6SM SCT150=



000
FTUS43 KICT 030520
TAFCNU
TAF
KCNU 030520Z 0306/0406 16008KT P6SM SKC
     FM031500 19013G22KT P6SM SCT100
     FM031900 18013G20KT P6SM SKC
     FM040100 15007KT P6SM FEW200=



000
FTUS43 KICT 030520
TAFSLN
TAF
KSLN 030520Z 0306/0406 16013KT P6SM SCT200
     FM031400 18016G23KT P6SM BKN100
     FM031900 18021G31KT P6SM FEW120
     FM040100 16013KT P6SM FEW150=



000
FTUS43 KICT 030520
TAFCNU
TAF
KCNU 030520Z 0306/0406 16008KT P6SM SKC
     FM031500 19013G22KT P6SM SCT100
     FM031900 18013G20KT P6SM SKC
     FM040100 15007KT P6SM FEW200=



000
FTUS43 KICT 022320
TAFCNU
TAF
KCNU 022320Z 0300/0324 17012KT P6SM SKC
     FM030100 16008KT P6SM SKC
     FM031600 19013G22KT P6SM FEW120=



000
FTUS43 KICT 022320
TAFCNU
TAF
KCNU 022320Z 0300/0324 17012KT P6SM SKC
     FM030100 16008KT P6SM SKC
     FM031600 19013G22KT P6SM FEW120=



000
FTUS43 KICT 022320
TAFHUT
TAF
KHUT 022320Z 0300/0324 17017G23KT P6SM SKC
     FM030100 16012KT P6SM FEW100
     FM031400 18015G23KT P6SM BKN120
     FM031900 18021G30KT P6SM FEW120=



000
FTUS43 KICT 022320
TAFHUT
TAF
KHUT 022320Z 0300/0324 17017G23KT P6SM SKC
     FM030100 16012KT P6SM FEW100
     FM031400 18015G23KT P6SM BKN120
     FM031900 18021G30KT P6SM FEW120=



000
FTUS43 KICT 022320
TAFRSL
TAF
KRSL 022320Z 0300/0324 17020G28KT P6SM FEW120
     FM030100 17013KT P6SM FEW100
     FM031400 18017G24KT P6SM SCT100
     FM031900 18024G32KT P6SM FEW120=



000
FTUS43 KICT 022320
TAFICT
TAF
KICT 022320Z 0300/0324 17014G20KT P6SM SKC
     FM030100 16011KT P6SM SKC
     FM031500 18015G23KT P6SM BKN120
     FM031900 18018G27KT P6SM FEW120=



000
FTUS43 KICT 022320
TAFRSL
TAF
KRSL 022320Z 0300/0324 17020G28KT P6SM FEW120
     FM030100 17013KT P6SM FEW100
     FM031400 18017G24KT P6SM SCT100
     FM031900 18024G32KT P6SM FEW120=



000
FTUS43 KICT 022320
TAFICT
TAF
KICT 022320Z 0300/0324 17014G20KT P6SM SKC
     FM030100 16011KT P6SM SKC
     FM031500 18015G23KT P6SM BKN120
     FM031900 18018G27KT P6SM FEW120=



000
FTUS43 KICT 022320
TAFSLN
TAF
KSLN 022320Z 0300/0324 17017G24KT P6SM SKC
     FM030100 16013KT P6SM SKC
     FM031400 18016G23KT P6SM BKN120
     FM031900 18021G31KT P6SM FEW120=



000
FTUS43 KICT 022320
TAFSLN
TAF
KSLN 022320Z 0300/0324 17017G24KT P6SM SKC
     FM030100 16013KT P6SM SKC
     FM031400 18016G23KT P6SM BKN120
     FM031900 18021G31KT P6SM FEW120=



000
FTUS43 KICT 021720
TAFCNU
TAF
KCNU 021720Z 0218/0318 19015KT P6SM SKC
     FM030100 16008KT P6SM SKC
     FM031500 19015G22KT P6SM SKC=



000
FTUS43 KICT 021720
TAFRSL
TAF
KRSL 021720Z 0218/0318 18020G28KT P6SM FEW120
     FM030100 18013KT P6SM FEW100
     FM031400 19018G25KT P6SM SCT100=



000
FTUS43 KICT 021720
TAFSLN
TAF
KSLN 021720Z 0218/0318 19020G28KT P6SM SKC
     FM030100 18013KT P6SM SKC
     FM031400 19018G25KT P6SM BKN120=



000
FTUS43 KICT 021720
TAFHUT
TAF
KHUT 021720Z 0218/0318 19017G25KT P6SM FEW070
     FM030000 17010KT P6SM SKC
     FM030900 18012KT P6SM BKN120
     FM031400 19018G25KT P6SM BKN120=



000
FTUS43 KICT 021720
TAFICT
TAF
KICT 021720Z 0218/0318 18015G22KT P6SM SCT120
     FM030000 17012KT P6SM SKC
     FM031500 19018G24KT P6SM BKN120=



000
FTUS43 KICT 021720
TAFCNU
TAF
KCNU 021720Z 0218/0318 19015KT P6SM SKC
     FM030100 16008KT P6SM SKC
     FM031500 19015G22KT P6SM SKC=



000
FTUS43 KICT 021720
TAFRSL
TAF
KRSL 021720Z 0218/0318 18020G28KT P6SM FEW120
     FM030100 18013KT P6SM FEW100
     FM031400 19018G25KT P6SM SCT100=



000
FTUS43 KICT 021720
TAFICT
TAF
KICT 021720Z 0218/0318 18015G22KT P6SM SCT120
     FM030000 17012KT P6SM SKC
     FM031500 19018G24KT P6SM BKN120=



000
FTUS43 KICT 021720
TAFHUT
TAF
KHUT 021720Z 0218/0318 19017G25KT P6SM FEW070
     FM030000 17010KT P6SM SKC
     FM030900 18012KT P6SM BKN120
     FM031400 19018G25KT P6SM BKN120=



000
FTUS43 KICT 021720
TAFSLN
TAF
KSLN 021720Z 0218/0318 19020G28KT P6SM SKC
     FM030100 18013KT P6SM SKC
     FM031400 19018G25KT P6SM BKN120=



000
FTUS43 KICT 021235 AAA
TAFSLN
TAF AMD
KSLN 021235Z 0213/0312 19012KT P6SM VCSH BKN120
     FM021330 19012KT P6SM BKN120
     FM021600 18015G23KT P6SM FEW070
     FM021900 18020G28KT P6SM SKC
     FM030100 18013KT P6SM SKC=



000
FTUS43 KICT 021235 AAA
TAFSLN
TAF AMD
KSLN 021235Z 0213/0312 19012KT P6SM VCSH BKN120
     FM021330 19012KT P6SM BKN120
     FM021600 18015G23KT P6SM FEW070
     FM021900 18020G28KT P6SM SKC
     FM030100 18013KT P6SM SKC=



000
FTUS43 KICT 021202 AAA
TAFHUT
TAF AMD
KHUT 021202Z 0212/0312 19010KT P6SM VCSH BKN120
     FM021400 18012KT P6SM SCT120 BKN150
     FM021700 17017G25KT P6SM FEW070
     FM030000 16010KT P6SM SKC=



000
FTUS43 KICT 021202 AAA
TAFHUT
TAF AMD
KHUT 021202Z 0212/0312 19010KT P6SM VCSH BKN120
     FM021400 18012KT P6SM SCT120 BKN150
     FM021700 17017G25KT P6SM FEW070
     FM030000 16010KT P6SM SKC=



000
FTUS43 KICT 021123
TAFCNU
TAF
KCNU 021123Z 0212/0312 19007KT P6SM SCT120
     FM021700 18015KT P6SM BKN100
     FM030100 16007KT P6SM SKC=



000
FTUS43 KICT 021123
TAFICT
TAF
KICT 021123Z 0212/0312 18012KT P6SM SCT100 BKN150
     FM021700 18015G22KT P6SM FEW070 SCT120
     FM030000 17012KT P6SM SKC=



000
FTUS43 KICT 021123
TAFRSL
TAF
KRSL 021123Z 0212/0312 19012KT P6SM FEW100
     FM021500 18020G28KT P6SM FEW080
     FM030100 18013KT P6SM FEW100=



000
FTUS43 KICT 021123
TAFSLN
TAF
KSLN 021123Z 0212/0312 19012KT P6SM BKN120
      TEMPO 0212/0213 BKN100
     FM021600 18015G23KT P6SM FEW070
     FM021900 18020G28KT P6SM SKC
     FM030100 18013KT P6SM SKC=



000
FTUS43 KICT 021123
TAFHUT
TAF
KHUT 021123Z 0212/0312 19010KT P6SM SCT100
     FM021700 17017G25KT P6SM FEW070
     FM030000 16010KT P6SM SKC=



000
FTUS43 KICT 021123
TAFSLN
TAF
KSLN 021123Z 0212/0312 19012KT P6SM BKN120
      TEMPO 0212/0213 BKN100
     FM021600 18015G23KT P6SM FEW070
     FM021900 18020G28KT P6SM SKC
     FM030100 18013KT P6SM SKC=



000
FTUS43 KICT 021123
TAFRSL
TAF
KRSL 021123Z 0212/0312 19012KT P6SM FEW100
     FM021500 18020G28KT P6SM FEW080
     FM030100 18013KT P6SM FEW100=



000
FTUS43 KICT 021123
TAFICT
TAF
KICT 021123Z 0212/0312 18012KT P6SM SCT100 BKN150
     FM021700 18015G22KT P6SM FEW070 SCT120
     FM030000 17012KT P6SM SKC=



000
FTUS43 KICT 021123
TAFHUT
TAF
KHUT 021123Z 0212/0312 19010KT P6SM SCT100
     FM021700 17017G25KT P6SM FEW070
     FM030000 16010KT P6SM SKC=



000
FTUS43 KICT 021123
TAFCNU
TAF
KCNU 021123Z 0212/0312 19007KT P6SM SCT120
     FM021700 18015KT P6SM BKN100
     FM030100 16007KT P6SM SKC=



000
FTUS43 KICT 020522
TAFCNU
TAF
KCNU 020522Z 0206/0306 15007KT P6SM SKC
     FM021500 18014G20KT P6SM SCT110
     FM030000 16007KT P6SM SKC=



000
FTUS43 KICT 020522
TAFSLN
TAF
KSLN 020522Z 0206/0306 16013KT P6SM SCT100
      TEMPO 0209/0213 BKN100
     FM021500 18017G25KT P6SM SCT100
     FM030100 16011KT P6SM SKC=



000
FTUS43 KICT 020522
TAFRSL
TAF
KRSL 020522Z 0206/0306 18015G22KT P6SM SCT090
      TEMPO 0206/0210 BKN090
     FM021500 18019G27KT P6SM SCT090
     FM030200 17013KT P6SM BKN090=



000
FTUS43 KICT 020522
TAFICT
TAF
KICT 020522Z 0206/0306 15012KT P6SM SCT100
     FM021500 18016G23KT P6SM SCT100
     FM030100 16010KT P6SM SKC=



000
FTUS43 KICT 020522
TAFHUT
TAF
KHUT 020522Z 0206/0306 15011KT P6SM SCT100
     FM021500 18017G25KT P6SM SCT100
     FM030100 16010KT P6SM SKC=



000
FTUS43 KICT 020522
TAFHUT
TAF
KHUT 020522Z 0206/0306 15011KT P6SM SCT100
     FM021500 18017G25KT P6SM SCT100
     FM030100 16010KT P6SM SKC=



000
FTUS43 KICT 020522
TAFSLN
TAF
KSLN 020522Z 0206/0306 16013KT P6SM SCT100
      TEMPO 0209/0213 BKN100
     FM021500 18017G25KT P6SM SCT100
     FM030100 16011KT P6SM SKC=



000
FTUS43 KICT 020522
TAFICT
TAF
KICT 020522Z 0206/0306 15012KT P6SM SCT100
     FM021500 18016G23KT P6SM SCT100
     FM030100 16010KT P6SM SKC=



000
FTUS43 KICT 020522
TAFCNU
TAF
KCNU 020522Z 0206/0306 15007KT P6SM SKC
     FM021500 18014G20KT P6SM SCT110
     FM030000 16007KT P6SM SKC=



000
FTUS43 KICT 020522
TAFRSL
TAF
KRSL 020522Z 0206/0306 18015G22KT P6SM SCT090
      TEMPO 0206/0210 BKN090
     FM021500 18019G27KT P6SM SCT090
     FM030200 17013KT P6SM BKN090=



000
FTUS43 KICT 012335
TAFCNU
TAF
KCNU 012335Z 0200/0224 16008KT P6SM SKC
     FM021500 18014G20KT P6SM SCT110=



000
FTUS43 KICT 012335
TAFICT
TAF
KICT 012335Z 0200/0224 15012KT P6SM SCT100
     FM021500 18016G23KT P6SM SCT100=



000
FTUS43 KICT 012335
TAFRSL
TAF
KRSL 012335Z 0200/0224 18015G22KT P6SM SCT090
      TEMPO 0202/0206 BKN090
     FM021500 18019G27KT P6SM SCT090=



000
FTUS43 KICT 012335
TAFSLN
TAF
KSLN 012335Z 0200/0224 16013KT P6SM SCT100
      TEMPO 0208/0212 BKN100
     FM021500 18017G25KT P6SM SCT100=



000
FTUS43 KICT 012335
TAFHUT
TAF
KHUT 012335Z 0200/0224 16012KT P6SM SCT100
     FM021500 18017G25KT P6SM SCT100=



000
FTUS43 KICT 011739
TAFSLN
TAF
KSLN 011739Z 0118/0218 19018G25KT P6SM SCT250
     FM020100 17012KT P6SM BKN120
     FM021500 18015G22KT P6SM BKN120=



000
FTUS43 KICT 011739
TAFHUT
TAF
KHUT 011739Z 0118/0218 18014G21KT P6SM SCT250
     FM020000 16012KT P6SM SCT080 BKN150
     FM021500 18015G22KT P6SM BKN150=



000
FTUS43 KICT 011739
TAFICT
TAF
KICT 011739Z 0118/0218 18015G22KT P6SM SKC
     FM020100 17012KT P6SM SCT080 BKN150
     FM021500 18015G22KT P6SM SCT150=



000
FTUS43 KICT 011739
TAFCNU
TAF
KCNU 011739Z 0118/0218 19014KT P6SM SCT250
     FM020100 16007KT P6SM BKN120
     FM020500 18010KT P6SM SCT120
     FM021500 18015G22KT P6SM SCT120=



000
FTUS43 KICT 011739
TAFRSL
TAF
KRSL 011739Z 0118/0218 19020G28KT P6SM SCT250
     FM020000 18012G20KT P6SM SCT150
     FM020200 18012KT P6SM BKN120
     FM021500 18015G22KT P6SM BKN120=



000
FTUS43 KICT 011739
TAFRSL
TAF
KRSL 011739Z 0118/0218 19020G28KT P6SM SCT250
     FM020000 18012G20KT P6SM SCT150
     FM020200 18012KT P6SM BKN120
     FM021500 18015G22KT P6SM BKN120=



000
FTUS43 KICT 011739
TAFICT
TAF
KICT 011739Z 0118/0218 18015G22KT P6SM SKC
     FM020100 17012KT P6SM SCT080 BKN150
     FM021500 18015G22KT P6SM SCT150=



000
FTUS43 KICT 011739
TAFHUT
TAF
KHUT 011739Z 0118/0218 18014G21KT P6SM SCT250
     FM020000 16012KT P6SM SCT080 BKN150
     FM021500 18015G22KT P6SM BKN150=



000
FTUS43 KICT 011739
TAFSLN
TAF
KSLN 011739Z 0118/0218 19018G25KT P6SM SCT250
     FM020100 17012KT P6SM BKN120
     FM021500 18015G22KT P6SM BKN120=



000
FTUS43 KICT 011739
TAFCNU
TAF
KCNU 011739Z 0118/0218 19014KT P6SM SCT250
     FM020100 16007KT P6SM BKN120
     FM020500 18010KT P6SM SCT120
     FM021500 18015G22KT P6SM SCT120=



000
FTUS43 KICT 011604 AAA
TAFSLN
TAF AMD
KSLN 011604Z 0116/0212 19018G25KT P6SM BKN250
     FM020100 17012KT P6SM SCT080 BKN150=



000
FTUS43 KICT 011511 AAA
TAFRSL
TAF AMD
KRSL 011511Z 0115/0212 19020G28KT P6SM SCT100 BKN250
     FM020000 18012G20KT P6SM SCT100 BKN250
     FM020200 18012KT P6SM SCT250=



000
FTUS43 KICT 011133
TAFHUT
TAF
KHUT 011133Z 0112/0212 16010KT P6SM BKN250
     FM011700 18015G25KT P6SM BKN250
     FM020000 16012KT P6SM SCT080 BKN150=



000
FTUS43 KICT 011133
TAFCNU
TAF
KCNU 011133Z 0112/0212 16005KT P6SM FEW100
     FM011700 18012G18KT P6SM SCT250
     FM020100 15007KT P6SM SCT250
     FM020600 18010KT P6SM BKN120=



000
FTUS43 KICT 011133
TAFSLN
TAF
KSLN 011133Z 0112/0212 17012KT P6SM BKN250
     FM011700 18018G25KT P6SM BKN250
     FM020100 17012KT P6SM SCT080 BKN150=



000
FTUS43 KICT 011133
TAFRSL
TAF
KRSL 011133Z 0112/0212 18015KT P6SM BKN250
     FM011600 19020G28KT P6SM SCT100 BKN250
     FM020000 18012G20KT P6SM SCT100 BKN250
     FM020200 18012KT P6SM SCT250=



000
FTUS43 KICT 011133
TAFICT
TAF
KICT 011133Z 0112/0212 17012KT P6SM BKN250
     FM011600 18015G25KT P6SM BKN250
     FM020100 17012KT P6SM SCT080 BKN150=



    US Dept of Commerce
    National Oceanic and Atmospheric Administration
    National Weather Service
    1325 East West Highway
    Silver Spring, MD 20910
    Page Author: NWS Internet Services Team
Disclaimer
Information Quality
Credits
Glossary
Privacy Policy
Freedom of Information Act (FOIA)
About Us
Career Opportunities